Airfield :
LOGIN :

Register | Disclaimer

   EN    FR    IT 

 










Legend :    VFR   Marginal VFR   IFR   Intensive IFR   Very Intensive IFR
Visi :
Ceiling :
>= 8 km
>= 3000ft
5 to 8 km
1000 to 3000 ft
1500m to 5 km
500 to 1000 ft
800 to 1500m
200 to 500 ft
< 800m
< 200 ft
Symbols :   Thunderstorms  Fog  Heavy snow  Heavy precipitations  Wind > 20 kt
SIGMETs :     Misc.  Thunderstorms  Icing  Turbulence  Mountain Waves  Volcanic Ashes






- Airport Elevation : 286 ft
- IATA code : FFD


EGVA - RAF Fairford

CURRENT METAR :
  • 200051Z AUTO 22014G20KT 9999 SCT017 BKN022 OVC040 09/07 A2985 RMK AO2 CIG 017V022 SLP113 $

EXPIRED METARs :
  • 200046Z AUTO 22014G22KT 9999 BKN017 BKN022 OVC038 09/07 A2985 RMK AO2 CIG 017V021 SLP113 $
  • 200031Z AUTO 22017G24KT 9999 FEW015 BKN021 BKN026 OVC038 09/07 A2985 RMK AO2 SLP113 $
  • 192356Z AUTO 22017KT 9999 OVC018 09/07 A2986 RMK AO2 CIG 017 RWY09 SLP117 T00860071 10086 20080 400860008 57018 $
  • 192336Z AUTO 22013KT 9999 SCT013 OVC020 08/07 A2986 RMK AO2 CIG 013V020 CIG 019 RWY09 SLP117 $
  • 192316Z AUTO 22011G19KT 9999 BKN012 BKN018 OVC024 08/07 A2987 RMK AO2 CIG 012V016 SLP120 $
  • 192246Z AUTO 23015KT 9999 SCT008 BKN018 OVC026 08/07 A2988 RMK AO2 CIG 008V018 SLP124 $
  • 192231Z AUTO 22011G19KT 9999 BKN009 OVC017 08/07 A2989 RMK AO2 CIG 009V017 BKN V SCT SLP127 $
  • 192156Z AUTO 22014KT 9999 OVC017 08/07 A2990 RMK AO2 OVC V BKN SLP131 T00830068 $

Expired Forecast.



MET'MAP, your aeronautical weather chart ! - Copyright ORBIFLY December 2007 - Disclaimer

ORBIFLY MET'MAP TEAM :

Programming & Development : Alexandra Zaïnal
Concept & original design : Baudouin d'Aumeries
Assistance for programming : Marc-Olivier Méhu
Technical & hardware support : Manuel Goepfert

Contact : metmap@orbifly.com




SOURCES & CREDITS :

   NOAA